sensor_id;sensor_type;location;lat;lon;timestamp;temperature;humidity
38910;DHT22;24676;51.360;12.354;2023-02-28T00:00:48;0.80;99.90
38910;DHT22;24676;51.360;12.354;2023-02-28T00:03:33;0.80;99.90
38910;DHT22;24676;51.360;12.354;2023-02-28T00:06:20;0.90;99.90
38910;DHT22;24676;51.360;12.354;2023-02-28T00:09:04;0.90;99.90
38910;DHT22;24676;51.360;12.354;2023-02-28T00:11:49;0.90;99.90
38910;DHT22;24676;51.360;12.354;2023-02-28T00:14:33;0.90;99.90
38910;DHT22;24676;51.360;12.354;2023-02-28T00:17:18;0.90;99.90
38910;DHT22;24676;51.360;12.354;2023-02-28T00:20:06;0.90;99.90
38910;DHT22;24676;51.360;12.354;2023-02-28T00:22:54;0.90;99.90
38910;DHT22;24676;51.360;12.354;2023-02-28T00:25:38;0.80;99.90
38910;DHT22;24676;51.360;12.354;2023-02-28T00:28:23;0.80;99.90
38910;DHT22;24676;51.360;12.354;2023-02-28T00:31:07;0.80;99.90
38910;DHT22;24676;51.360;12.354;2023-02-28T00:33:52;0.80;99.90
38910;DHT22;24676;51.360;12.354;2023-02-28T00:36:36;0.80;99.90
38910;DHT22;24676;51.360;12.354;2023-02-28T00:39:21;0.80;99.90
38910;DHT22;24676;51.360;12.354;2023-02-28T00:42:06;0.80;99.90
38910;DHT22;24676;51.360;12.354;2023-02-28T00:44:51;0.70;99.90
38910;DHT22;24676;51.360;12.354;2023-02-28T00:47:36;0.70;99.90
38910;DHT22;24676;51.360;12.354;2023-02-28T00:50:20;0.70;99.90
38910;DHT22;24676;51.360;12.354;2023-02-28T00:53:05;0.70;99.90
38910;DHT22;24676;51.360;12.354;2023-02-28T00:55:50;0.70;99.90
38910;DHT22;24676;51.360;12.354;2023-02-28T00:58:34;0.70;99.90
38910;DHT22;24676;51.360;12.354;2023-02-28T01:01:18;0.70;99.90
38910;DHT22;24676;51.360;12.354;2023-02-28T01:04:02;0.70;99.90
38910;DHT22;24676;51.360;12.354;2023-02-28T01:06:46;0.70;99.90
38910;DHT22;24676;51.360;12.354;2023-02-28T01:09:31;0.70;99.90
38910;DHT22;24676;51.360;12.354;2023-02-28T01:12:15;0.70;99.90
38910;DHT22;24676;51.360;12.354;2023-02-28T01:14:59;0.70;99.90
38910;DHT22;24676;51.360;12.354;2023-02-28T01:17:44;0.70;99.90
38910;DHT22;24676;51.360;12.354;2023-02-28T01:20:28;0.70;99.90
38910;DHT22;24676;51.360;12.354;2023-02-28T01:23:12;0.70;99.90
38910;DHT22;24676;51.360;12.354;2023-02-28T01:25:56;0.70;99.90
38910;DHT22;24676;51.360;12.354;2023-02-28T01:28:41;0.70;99.90
38910;DHT22;24676;51.360;12.354;2023-02-28T01:31:26;0.70;99.90
38910;DHT22;24676;51.360;12.354;2023-02-28T01:34:10;0.80;99.90
38910;DHT22;24676;51.360;12.354;2023-02-28T01:36:54;0.80;99.90
38910;DHT22;24676;51.360;12.354;2023-02-28T01:39:38;0.70;99.90
38910;DHT22;24676;51.360;12.354;2023-02-28T01:42:22;0.80;99.90
38910;DHT22;24676;51.360;12.354;2023-02-28T01:48:07;0.70;99.90
38910;DHT22;24676;51.360;12.354;2023-02-28T01:50:55;0.70;99.90
38910;DHT22;24676;51.360;12.354;2023-02-28T01:53:55;0.70;99.90
38910;DHT22;24676;51.360;12.354;2023-02-28T01:56:45;0.60;99.90
38910;DHT22;24676;51.360;12.354;2023-02-28T01:59:41;0.60;99.90
38910;DHT22;24676;51.360;12.354;2023-02-28T02:02:30;0.60;99.90
38910;DHT22;24676;51.360;12.354;2023-02-28T02:05:19;0.60;99.90
38910;DHT22;24676;51.360;12.354;2023-02-28T02:08:09;0.60;99.90
38910;DHT22;24676;51.360;12.354;2023-02-28T02:10:57;0.60;99.90
38910;DHT22;24676;51.360;12.354;2023-02-28T02:17:20;0.60;99.90
38910;DHT22;24676;51.360;12.354;2023-02-28T02:26:58;0.50;99.90
38910;DHT22;24676;51.360;12.354;2023-02-28T02:39:06;0.40;99.90
38910;DHT22;24676;51.360;12.354;2023-02-28T02:41:54;0.40;99.90
38910;DHT22;24676;51.360;12.354;2023-02-28T02:44:46;0.30;99.90
38910;DHT22;24676;51.360;12.354;2023-02-28T02:47:32;0.30;99.90
38910;DHT22;24676;51.360;12.354;2023-02-28T02:50:23;0.30;99.90
38910;DHT22;24676;51.360;12.354;2023-02-28T02:53:09;0.20;99.90
38910;DHT22;24676;51.360;12.354;2023-02-28T02:55:55;0.20;99.90
38910;DHT22;24676;51.360;12.354;2023-02-28T02:58:41;0.10;99.90
38910;DHT22;24676;51.360;12.354;2023-02-28T03:01:27;0.10;99.90
38910;DHT22;24676;51.360;12.354;2023-02-28T03:04:18;0.00;99.90
38910;DHT22;24676;51.360;12.354;2023-02-28T03:07:03;0.00;99.90
38910;DHT22;24676;51.360;12.354;2023-02-28T03:09:52;-0.10;99.90
38910;DHT22;24676;51.360;12.354;2023-02-28T03:12:44;-0.20;99.90
38910;DHT22;24676;51.360;12.354;2023-02-28T03:25:46;-0.40;99.90
38910;DHT22;24676;51.360;12.354;2023-02-28T03:28:47;-0.40;99.90
38910;DHT22;24676;51.360;12.354;2023-02-28T03:31:39;-0.40;99.90
38910;DHT22;24676;51.360;12.354;2023-02-28T03:34:29;-0.50;99.90
38910;DHT22;24676;51.360;12.354;2023-02-28T03:37:19;-0.50;99.90
38910;DHT22;24676;51.360;12.354;2023-02-28T03:40:14;-0.50;99.90
38910;DHT22;24676;51.360;12.354;2023-02-28T03:42:59;-0.50;99.90
38910;DHT22;24676;51.360;12.354;2023-02-28T03:45:46;-0.50;99.90
38910;DHT22;24676;51.360;12.354;2023-02-28T03:48:35;-0.50;99.90
38910;DHT22;24676;51.360;12.354;2023-02-28T03:51:21;-0.60;99.90
38910;DHT22;24676;51.360;12.354;2023-02-28T03:54:08;-0.60;99.90
38910;DHT22;24676;51.360;12.354;2023-02-28T03:56:58;-0.70;99.90
38910;DHT22;24676;51.360;12.354;2023-02-28T03:59:49;-0.70;99.90
38910;DHT22;24676;51.360;12.354;2023-02-28T04:02:37;-0.60;99.90
38910;DHT22;24676;51.360;12.354;2023-02-28T04:05:21;-0.60;99.90
38910;DHT22;24676;51.360;12.354;2023-02-28T04:08:07;-0.50;99.90
38910;DHT22;24676;51.360;12.354;2023-02-28T04:10:58;-0.50;99.90
38910;DHT22;24676;51.360;12.354;2023-02-28T04:13:45;-0.40;99.90
38910;DHT22;24676;51.360;12.354;2023-02-28T04:16:31;-0.40;99.90
38910;DHT22;24676;51.360;12.354;2023-02-28T04:19:16;-0.30;99.90
38910;DHT22;24676;51.360;12.354;2023-02-28T04:22:00;-0.30;99.90
38910;DHT22;24676;51.360;12.354;2023-02-28T04:24:44;-0.30;99.90
38910;DHT22;24676;51.360;12.354;2023-02-28T04:27:29;-0.20;99.90
38910;DHT22;24676;51.360;12.354;2023-02-28T04:30:13;-0.20;99.90
38910;DHT22;24676;51.360;12.354;2023-02-28T04:32:58;-0.20;99.90
38910;DHT22;24676;51.360;12.354;2023-02-28T04:35:42;-0.20;99.90
38910;DHT22;24676;51.360;12.354;2023-02-28T04:38:26;-0.10;99.90
38910;DHT22;24676;51.360;12.354;2023-02-28T04:41:11;-0.10;99.90
38910;DHT22;24676;51.360;12.354;2023-02-28T04:43:55;-0.10;99.90
38910;DHT22;24676;51.360;12.354;2023-02-28T04:46:39;-0.10;99.90
38910;DHT22;24676;51.360;12.354;2023-02-28T04:49:26;-0.20;99.90
38910;DHT22;24676;51.360;12.354;2023-02-28T04:52:10;-0.20;99.90
38910;DHT22;24676;51.360;12.354;2023-02-28T04:54:55;-0.20;99.90
38910;DHT22;24676;51.360;12.354;2023-02-28T04:57:39;-0.30;99.90
38910;DHT22;24676;51.360;12.354;2023-02-28T05:00:23;-0.40;99.90
38910;DHT22;24676;51.360;12.354;2023-02-28T05:03:08;-0.40;99.90
38910;DHT22;24676;51.360;12.354;2023-02-28T05:05:53;-0.40;99.90
38910;DHT22;24676;51.360;12.354;2023-02-28T05:08:37;-0.30;99.90
38910;DHT22;24676;51.360;12.354;2023-02-28T05:14:13;-0.30;99.90
38910;DHT22;24676;51.360;12.354;2023-02-28T05:16:58;-0.20;99.90
38910;DHT22;24676;51.360;12.354;2023-02-28T05:19:42;-0.30;99.90
38910;DHT22;24676;51.360;12.354;2023-02-28T05:22:26;-0.30;99.90
38910;DHT22;24676;51.360;12.354;2023-02-28T05:25:13;-0.30;99.90
38910;DHT22;24676;51.360;12.354;2023-02-28T05:27:59;-0.30;99.90
38910;DHT22;24676;51.360;12.354;2023-02-28T05:30:43;-0.30;99.90
38910;DHT22;24676;51.360;12.354;2023-02-28T05:33:27;-0.30;99.90
38910;DHT22;24676;51.360;12.354;2023-02-28T05:36:11;-0.30;99.90
38910;DHT22;24676;51.360;12.354;2023-02-28T05:38:55;-0.30;99.90
38910;DHT22;24676;51.360;12.354;2023-02-28T05:41:43;-0.30;99.90
38910;DHT22;24676;51.360;12.354;2023-02-28T05:44:27;-0.30;99.90
38910;DHT22;24676;51.360;12.354;2023-02-28T05:47:11;-0.40;99.90
38910;DHT22;24676;51.360;12.354;2023-02-28T05:49:59;-0.40;99.90
38910;DHT22;24676;51.360;12.354;2023-02-28T05:52:44;-0.40;99.90
38910;DHT22;24676;51.360;12.354;2023-02-28T05:55:28;-0.50;99.90
38910;DHT22;24676;51.360;12.354;2023-02-28T05:58:12;-0.50;99.90
38910;DHT22;24676;51.360;12.354;2023-02-28T06:00:57;-0.50;99.90
38910;DHT22;24676;51.360;12.354;2023-02-28T06:03:41;-0.60;99.90
38910;DHT22;24676;51.360;12.354;2023-02-28T06:06:27;-0.60;99.90
38910;DHT22;24676;51.360;12.354;2023-02-28T06:09:11;-0.60;99.90
38910;DHT22;24676;51.360;12.354;2023-02-28T06:11:58;-0.60;99.90
38910;DHT22;24676;51.360;12.354;2023-02-28T06:14:42;-0.60;99.90
38910;DHT22;24676;51.360;12.354;2023-02-28T06:17:26;-0.60;99.90
38910;DHT22;24676;51.360;12.354;2023-02-28T06:20:12;-0.60;99.90
38910;DHT22;24676;51.360;12.354;2023-02-28T06:22:57;-0.60;99.90
38910;DHT22;24676;51.360;12.354;2023-02-28T06:25:45;-0.60;99.90
38910;DHT22;24676;51.360;12.354;2023-02-28T06:28:29;-0.60;99.90
38910;DHT22;24676;51.360;12.354;2023-02-28T06:31:15;-0.50;99.90
38910;DHT22;24676;51.360;12.354;2023-02-28T06:34:00;-0.40;99.90
38910;DHT22;24676;51.360;12.354;2023-02-28T06:36:44;-0.40;99.90
38910;DHT22;24676;51.360;12.354;2023-02-28T06:39:29;-0.30;99.90
38910;DHT22;24676;51.360;12.354;2023-02-28T06:42:13;-0.20;99.90
38910;DHT22;24676;51.360;12.354;2023-02-28T06:44:58;-0.10;99.90
38910;DHT22;24676;51.360;12.354;2023-02-28T06:47:42;-0.10;99.90
38910;DHT22;24676;51.360;12.354;2023-02-28T06:50:27;-0.10;99.90
38910;DHT22;24676;51.360;12.354;2023-02-28T06:53:18;-0.10;99.90
38910;DHT22;24676;51.360;12.354;2023-02-28T06:56:11;-0.10;99.90
38910;DHT22;24676;51.360;12.354;2023-02-28T06:58:55;-0.10;99.90
38910;DHT22;24676;51.360;12.354;2023-02-28T07:01:40;-0.10;99.90
38910;DHT22;24676;51.360;12.354;2023-02-28T07:04:24;-0.10;99.90
38910;DHT22;24676;51.360;12.354;2023-02-28T07:07:08;-0.10;99.90
38910;DHT22;24676;51.360;12.354;2023-02-28T07:09:53;-0.10;99.90
38910;DHT22;24676;51.360;12.354;2023-02-28T07:12:37;0.00;99.90
38910;DHT22;24676;51.360;12.354;2023-02-28T07:15:22;0.00;99.90
38910;DHT22;24676;51.360;12.354;2023-02-28T07:18:06;0.10;99.90
38910;DHT22;24676;51.360;12.354;2023-02-28T07:20:50;0.20;99.90
38910;DHT22;24676;51.360;12.354;2023-02-28T07:23:35;0.30;99.90
38910;DHT22;24676;51.360;12.354;2023-02-28T07:26:21;0.40;99.90
38910;DHT22;24676;51.360;12.354;2023-02-28T07:29:06;0.70;99.90
38910;DHT22;24676;51.360;12.354;2023-02-28T07:31:50;2.20;99.90
38910;DHT22;24676;51.360;12.354;2023-02-28T07:34:37;4.50;93.60
38910;DHT22;24676;51.360;12.354;2023-02-28T07:37:21;7.40;71.10
38910;DHT22;24676;51.360;12.354;2023-02-28T07:40:09;9.50;55.80
38910;DHT22;24676;51.360;12.354;2023-02-28T07:42:54;12.00;50.20
38910;DHT22;24676;51.360;12.354;2023-02-28T07:45:38;13.30;44.00
38910;DHT22;24676;51.360;12.354;2023-02-28T07:48:22;14.70;41.70
38910;DHT22;24676;51.360;12.354;2023-02-28T07:51:07;15.80;38.30
38910;DHT22;24676;51.360;12.354;2023-02-28T07:53:51;16.40;36.70
38910;DHT22;24676;51.360;12.354;2023-02-28T07:56:35;17.00;34.60
38910;DHT22;24676;51.360;12.354;2023-02-28T07:59:19;18.00;33.30
38910;DHT22;24676;51.360;12.354;2023-02-28T08:02:04;18.90;31.20
38910;DHT22;24676;51.360;12.354;2023-02-28T08:04:48;19.20;30.00
38910;DHT22;24676;51.360;12.354;2023-02-28T08:07:33;19.80;29.20
38910;DHT22;24676;51.360;12.354;2023-02-28T08:10:17;21.00;27.20
38910;DHT22;24676;51.360;12.354;2023-02-28T08:13:02;21.40;26.40
38910;DHT22;24676;51.360;12.354;2023-02-28T08:15:46;21.20;25.50
38910;DHT22;24676;51.360;12.354;2023-02-28T08:18:32;20.60;26.00
38910;DHT22;24676;51.360;12.354;2023-02-28T08:21:16;19.80;26.10
38910;DHT22;24676;51.360;12.354;2023-02-28T08:24:01;18.60;27.20
38910;DHT22;24676;51.360;12.354;2023-02-28T08:26:45;16.20;29.00
38910;DHT22;24676;51.360;12.354;2023-02-28T08:29:29;14.60;30.80
38910;DHT22;24676;51.360;12.354;2023-02-28T08:32:14;12.80;33.80
38910;DHT22;24676;51.360;12.354;2023-02-28T08:34:59;11.70;36.00
38910;DHT22;24676;51.360;12.354;2023-02-28T08:37:44;10.70;38.60
38910;DHT22;24676;51.360;12.354;2023-02-28T08:40:28;10.10;38.70
38910;DHT22;24676;51.360;12.354;2023-02-28T08:43:12;9.70;40.10
38910;DHT22;24676;51.360;12.354;2023-02-28T08:45:56;9.40;41.00
38910;DHT22;24676;51.360;12.354;2023-02-28T08:48:40;8.60;41.20
38910;DHT22;24676;51.360;12.354;2023-02-28T08:51:25;8.30;42.00
38910;DHT22;24676;51.360;12.354;2023-02-28T08:54:12;8.30;42.60
38910;DHT22;24676;51.360;12.354;2023-02-28T08:56:56;7.90;42.50
38910;DHT22;24676;51.360;12.354;2023-02-28T08:59:40;7.70;43.10
38910;DHT22;24676;51.360;12.354;2023-02-28T09:02:25;7.50;43.30
38910;DHT22;24676;51.360;12.354;2023-02-28T09:05:09;7.60;44.30
38910;DHT22;24676;51.360;12.354;2023-02-28T09:07:53;7.90;44.50
38910;DHT22;24676;51.360;12.354;2023-02-28T09:10:37;8.20;44.00
38910;DHT22;24676;51.360;12.354;2023-02-28T09:13:21;8.00;42.90
38910;DHT22;24676;51.360;12.354;2023-02-28T09:16:07;7.70;42.60
38910;DHT22;24676;51.360;12.354;2023-02-28T09:18:53;7.60;43.80
38910;DHT22;24676;51.360;12.354;2023-02-28T09:21:36;7.40;43.60
38910;DHT22;24676;51.360;12.354;2023-02-28T09:24:21;7.50;44.90
38910;DHT22;24676;51.360;12.354;2023-02-28T09:27:05;7.50;43.70
38910;DHT22;24676;51.360;12.354;2023-02-28T09:29:50;7.40;43.00
38910;DHT22;24676;51.360;12.354;2023-02-28T09:32:34;7.40;43.70
38910;DHT22;24676;51.360;12.354;2023-02-28T09:35:20;7.40;44.10
38910;DHT22;24676;51.360;12.354;2023-02-28T09:38:05;7.40;43.70
38910;DHT22;24676;51.360;12.354;2023-02-28T09:41:03;6.90;44.10
38910;DHT22;24676;51.360;12.354;2023-02-28T09:43:50;5.90;44.50
38910;DHT22;24676;51.360;12.354;2023-02-28T09:46:43;5.70;46.70
38910;DHT22;24676;51.360;12.354;2023-02-28T09:49:31;6.60;45.80
38910;DHT22;24676;51.360;12.354;2023-02-28T09:52:18;7.40;43.50
38910;DHT22;24676;51.360;12.354;2023-02-28T09:58:28;6.60;43.00
38910;DHT22;24676;51.360;12.354;2023-02-28T10:04:22;6.60;44.00
38910;DHT22;24676;51.360;12.354;2023-02-28T10:07:18;7.30;43.60
38910;DHT22;24676;51.360;12.354;2023-02-28T10:10:13;7.80;42.50
38910;DHT22;24676;51.360;12.354;2023-02-28T10:13:04;8.70;40.70
38910;DHT22;24676;51.360;12.354;2023-02-28T10:15:52;9.20;40.40
38910;DHT22;24676;51.360;12.354;2023-02-28T10:18:48;9.60;38.60
38910;DHT22;24676;51.360;12.354;2023-02-28T10:21:57;10.50;38.50
38910;DHT22;24676;51.360;12.354;2023-02-28T10:24:51;11.40;35.80
38910;DHT22;24676;51.360;12.354;2023-02-28T10:27:35;11.90;34.50
38910;DHT22;24676;51.360;12.354;2023-02-28T10:30:20;11.60;33.60
38910;DHT22;24676;51.360;12.354;2023-02-28T10:33:04;10.60;34.20
38910;DHT22;24676;51.360;12.354;2023-02-28T10:35:48;9.90;36.00
38910;DHT22;24676;51.360;12.354;2023-02-28T10:38:38;9.40;36.90
38910;DHT22;24676;51.360;12.354;2023-02-28T10:41:27;9.70;37.20
38910;DHT22;24676;51.360;12.354;2023-02-28T10:44:21;10.30;36.70
38910;DHT22;24676;51.360;12.354;2023-02-28T10:47:16;10.10;36.70
38910;DHT22;24676;51.360;12.354;2023-02-28T10:50:02;10.00;36.00
38910;DHT22;24676;51.360;12.354;2023-02-28T10:52:46;10.60;37.30
38910;DHT22;24676;51.360;12.354;2023-02-28T10:55:30;11.90;35.20
38910;DHT22;24676;51.360;12.354;2023-02-28T10:58:21;12.00;34.00
38910;DHT22;24676;51.360;12.354;2023-02-28T11:01:20;11.80;34.50
38910;DHT22;24676;51.360;12.354;2023-02-28T11:07:21;11.40;34.40
38910;DHT22;24676;51.360;12.354;2023-02-28T11:10:16;11.20;35.60
38910;DHT22;24676;51.360;12.354;2023-02-28T11:13:02;11.10;35.70
38910;DHT22;24676;51.360;12.354;2023-02-28T11:15:53;11.20;36.10
38910;DHT22;24676;51.360;12.354;2023-02-28T11:18:51;11.30;35.20
38910;DHT22;24676;51.360;12.354;2023-02-28T11:21:36;10.70;36.10
38910;DHT22;24676;51.360;12.354;2023-02-28T11:24:29;10.10;37.30
38910;DHT22;24676;51.360;12.354;2023-02-28T11:30:35;10.60;37.70
38910;DHT22;24676;51.360;12.354;2023-02-28T11:33:28;10.70;36.90
38910;DHT22;24676;51.360;12.354;2023-02-28T11:39:12;11.00;36.50
38910;DHT22;24676;51.360;12.354;2023-02-28T12:03:15;10.40;38.40
38910;DHT22;24676;51.360;12.354;2023-02-28T12:09:19;10.50;38.90
38910;DHT22;24676;51.360;12.354;2023-02-28T12:26:53;11.60;36.40
38910;DHT22;24676;51.360;12.354;2023-02-28T12:29:58;11.30;36.50
38910;DHT22;24676;51.360;12.354;2023-02-28T12:32:53;11.00;36.90
38910;DHT22;24676;51.360;12.354;2023-02-28T12:35:52;10.20;37.90
38910;DHT22;24676;51.360;12.354;2023-02-28T12:38:44;9.80;39.00
38910;DHT22;24676;51.360;12.354;2023-02-28T12:41:47;8.90;39.70
38910;DHT22;24676;51.360;12.354;2023-02-28T12:44:53;8.40;41.90
38910;DHT22;24676;51.360;12.354;2023-02-28T12:47:42;8.10;43.10
38910;DHT22;24676;51.360;12.354;2023-02-28T12:50:28;8.00;44.40
38910;DHT22;24676;51.360;12.354;2023-02-28T12:53:29;7.70;44.40
38910;DHT22;24676;51.360;12.354;2023-02-28T12:56:29;7.40;44.80
38910;DHT22;24676;51.360;12.354;2023-02-28T13:11:00;6.50;48.70
38910;DHT22;24676;51.360;12.354;2023-02-28T13:13:45;6.20;48.40
38910;DHT22;24676;51.360;12.354;2023-02-28T13:22:42;5.80;50.20
38910;DHT22;24676;51.360;12.354;2023-02-28T13:37:42;6.00;49.40
38910;DHT22;24676;51.360;12.354;2023-02-28T13:40:30;5.90;49.60
38910;DHT22;24676;51.360;12.354;2023-02-28T13:43:20;5.90;49.80
38910;DHT22;24676;51.360;12.354;2023-02-28T13:46:11;5.90;50.00
38910;DHT22;24676;51.360;12.354;2023-02-28T13:48:56;5.80;49.90
38910;DHT22;24676;51.360;12.354;2023-02-28T13:51:46;5.90;50.20
38910;DHT22;24676;51.360;12.354;2023-02-28T14:07:03;5.60;51.10
38910;DHT22;24676;51.360;12.354;2023-02-28T14:09:58;5.50;51.30
38910;DHT22;24676;51.360;12.354;2023-02-28T14:12:59;5.40;51.30
38910;DHT22;24676;51.360;12.354;2023-02-28T14:15:46;5.40;51.30
38910;DHT22;24676;51.360;12.354;2023-02-28T14:18:37;5.30;51.20
38910;DHT22;24676;51.360;12.354;2023-02-28T14:21:31;5.30;51.80
38910;DHT22;24676;51.360;12.354;2023-02-28T14:31:03;5.40;52.20
38910;DHT22;24676;51.360;12.354;2023-02-28T14:34:29;5.30;52.00
38910;DHT22;24676;51.360;12.354;2023-02-28T14:37:20;5.20;52.30
38910;DHT22;24676;51.360;12.354;2023-02-28T14:40:14;5.20;52.80
38910;DHT22;24676;51.360;12.354;2023-02-28T14:43:04;5.10;53.00
38910;DHT22;24676;51.360;12.354;2023-02-28T14:46:00;5.10;53.00
38910;DHT22;24676;51.360;12.354;2023-02-28T14:48:49;5.10;53.20
38910;DHT22;24676;51.360;12.354;2023-02-28T14:51:35;5.10;53.10
38910;DHT22;24676;51.360;12.354;2023-02-28T14:54:21;5.00;53.40
38910;DHT22;24676;51.360;12.354;2023-02-28T15:00:26;5.00;54.00
38910;DHT22;24676;51.360;12.354;2023-02-28T15:06:06;4.90;53.90
38910;DHT22;24676;51.360;12.354;2023-02-28T15:09:09;4.90;54.00
38910;DHT22;24676;51.360;12.354;2023-02-28T15:11:54;4.90;54.40
38910;DHT22;24676;51.360;12.354;2023-02-28T15:14:42;4.90;54.00
38910;DHT22;24676;51.360;12.354;2023-02-28T15:17:27;4.80;53.90
38910;DHT22;24676;51.360;12.354;2023-02-28T15:20:13;4.70;54.00
38910;DHT22;24676;51.360;12.354;2023-02-28T15:22:59;4.70;54.40
38910;DHT22;24676;51.360;12.354;2023-02-28T15:25:44;4.70;55.40
38910;DHT22;24676;51.360;12.354;2023-02-28T15:28:28;4.70;55.50
38910;DHT22;24676;51.360;12.354;2023-02-28T15:31:46;4.70;55.30
38910;DHT22;24676;51.360;12.354;2023-02-28T15:34:43;4.60;55.40
38910;DHT22;24676;51.360;12.354;2023-02-28T15:37:40;4.60;55.90
38910;DHT22;24676;51.360;12.354;2023-02-28T15:40:40;4.50;55.30
38910;DHT22;24676;51.360;12.354;2023-02-28T15:43:28;4.50;56.10
38910;DHT22;24676;51.360;12.354;2023-02-28T15:46:13;4.40;56.60
38910;DHT22;24676;51.360;12.354;2023-02-28T15:48:59;4.40;56.50
38910;DHT22;24676;51.360;12.354;2023-02-28T15:51:43;4.40;56.80
38910;DHT22;24676;51.360;12.354;2023-02-28T15:54:33;4.30;56.70
38910;DHT22;24676;51.360;12.354;2023-02-28T15:57:24;4.30;57.00
38910;DHT22;24676;51.360;12.354;2023-02-28T16:00:16;4.20;57.40
38910;DHT22;24676;51.360;12.354;2023-02-28T16:03:23;4.10;57.80
38910;DHT22;24676;51.360;12.354;2023-02-28T16:09:01;4.00;58.20
38910;DHT22;24676;51.360;12.354;2023-02-28T16:11:51;4.00;58.50
38910;DHT22;24676;51.360;12.354;2023-02-28T16:14:36;3.90;58.80
38910;DHT22;24676;51.360;12.354;2023-02-28T16:17:25;3.80;59.80
38910;DHT22;24676;51.360;12.354;2023-02-28T16:20:25;3.80;59.90
38910;DHT22;24676;51.360;12.354;2023-02-28T16:23:09;3.70;61.00
38910;DHT22;24676;51.360;12.354;2023-02-28T16:25:53;3.60;61.50
38910;DHT22;24676;51.360;12.354;2023-02-28T16:28:38;3.60;62.50
38910;DHT22;24676;51.360;12.354;2023-02-28T16:31:23;3.50;64.00
38910;DHT22;24676;51.360;12.354;2023-02-28T16:34:07;3.40;64.70
38910;DHT22;24676;51.360;12.354;2023-02-28T16:36:52;3.40;66.00
38910;DHT22;24676;51.360;12.354;2023-02-28T16:39:36;3.30;67.20
38910;DHT22;24676;51.360;12.354;2023-02-28T16:42:26;3.20;80.00
38910;DHT22;24676;51.360;12.354;2023-02-28T16:45:16;3.20;75.60
38910;DHT22;24676;51.360;12.354;2023-02-28T16:48:02;3.10;76.10
38910;DHT22;24676;51.360;12.354;2023-02-28T16:50:47;3.10;83.90
38910;DHT22;24676;51.360;12.354;2023-02-28T16:53:31;3.00;80.60
38910;DHT22;24676;51.360;12.354;2023-02-28T16:56:21;2.90;80.50
38910;DHT22;24676;51.360;12.354;2023-02-28T16:59:06;2.90;81.00
38910;DHT22;24676;51.360;12.354;2023-02-28T17:01:52;2.80;82.20
38910;DHT22;24676;51.360;12.354;2023-02-28T17:04:36;2.60;85.30
38910;DHT22;24676;51.360;12.354;2023-02-28T17:07:20;2.60;88.10
38910;DHT22;24676;51.360;12.354;2023-02-28T17:10:25;2.50;89.80
38910;DHT22;24676;51.360;12.354;2023-02-28T17:13:10;2.50;90.50
38910;DHT22;24676;51.360;12.354;2023-02-28T17:15:55;2.40;91.70
38910;DHT22;24676;51.360;12.354;2023-02-28T17:18:39;2.30;92.10
38910;DHT22;24676;51.360;12.354;2023-02-28T17:21:24;2.20;93.30
38910;DHT22;24676;51.360;12.354;2023-02-28T17:24:09;2.10;94.70
38910;DHT22;24676;51.360;12.354;2023-02-28T17:26:57;1.90;96.00
38910;DHT22;24676;51.360;12.354;2023-02-28T17:29:41;1.80;98.00
38910;DHT22;24676;51.360;12.354;2023-02-28T17:32:26;1.80;99.60
38910;DHT22;24676;51.360;12.354;2023-02-28T17:35:12;1.70;99.90
38910;DHT22;24676;51.360;12.354;2023-02-28T17:37:56;1.60;99.90
38910;DHT22;24676;51.360;12.354;2023-02-28T17:40:40;1.60;99.90
38910;DHT22;24676;51.360;12.354;2023-02-28T17:43:26;1.50;99.90
38910;DHT22;24676;51.360;12.354;2023-02-28T17:46:19;1.40;99.90
38910;DHT22;24676;51.360;12.354;2023-02-28T17:49:04;1.40;99.90
38910;DHT22;24676;51.360;12.354;2023-02-28T17:51:49;1.30;99.90
38910;DHT22;24676;51.360;12.354;2023-02-28T17:54:34;1.20;99.90
38910;DHT22;24676;51.360;12.354;2023-02-28T17:57:18;1.10;99.90
38910;DHT22;24676;51.360;12.354;2023-02-28T18:00:05;1.00;99.90
38910;DHT22;24676;51.360;12.354;2023-02-28T18:02:50;0.90;99.90
38910;DHT22;24676;51.360;12.354;2023-02-28T18:05:35;0.80;99.90
38910;DHT22;24676;51.360;12.354;2023-02-28T18:08:20;0.70;99.90
38910;DHT22;24676;51.360;12.354;2023-02-28T18:11:06;0.60;99.90
38910;DHT22;24676;51.360;12.354;2023-02-28T18:14:03;0.50;99.90
38910;DHT22;24676;51.360;12.354;2023-02-28T18:16:47;0.40;99.90
38910;DHT22;24676;51.360;12.354;2023-02-28T18:19:32;0.30;99.90
38910;DHT22;24676;51.360;12.354;2023-02-28T18:22:16;0.30;99.90
38910;DHT22;24676;51.360;12.354;2023-02-28T18:25:00;0.20;99.90
38910;DHT22;24676;51.360;12.354;2023-02-28T18:27:45;0.10;99.90
38910;DHT22;24676;51.360;12.354;2023-02-28T18:30:41;0.10;99.90
38910;DHT22;24676;51.360;12.354;2023-02-28T18:33:26;0.00;99.90
38910;DHT22;24676;51.360;12.354;2023-02-28T18:36:10;-0.10;99.90
38910;DHT22;24676;51.360;12.354;2023-02-28T18:38:54;-0.10;99.90
38910;DHT22;24676;51.360;12.354;2023-02-28T18:41:39;-0.10;99.90
38910;DHT22;24676;51.360;12.354;2023-02-28T18:44:23;-0.20;99.90
38910;DHT22;24676;51.360;12.354;2023-02-28T18:47:07;-0.20;99.90
38910;DHT22;24676;51.360;12.354;2023-02-28T18:49:52;-0.30;99.90
38910;DHT22;24676;51.360;12.354;2023-02-28T18:52:38;-0.30;99.90
38910;DHT22;24676;51.360;12.354;2023-02-28T18:55:22;-0.40;99.90
38910;DHT22;24676;51.360;12.354;2023-02-28T18:58:07;-0.40;99.90
38910;DHT22;24676;51.360;12.354;2023-02-28T19:00:51;-0.50;99.90
38910;DHT22;24676;51.360;12.354;2023-02-28T19:03:36;-0.50;99.90
38910;DHT22;24676;51.360;12.354;2023-02-28T19:06:20;-0.60;99.90
38910;DHT22;24676;51.360;12.354;2023-02-28T19:09:05;-0.60;99.90
38910;DHT22;24676;51.360;12.354;2023-02-28T19:11:49;-0.70;99.90
38910;DHT22;24676;51.360;12.354;2023-02-28T19:14:33;-0.70;99.90
38910;DHT22;24676;51.360;12.354;2023-02-28T19:17:18;-0.80;99.90
38910;DHT22;24676;51.360;12.354;2023-02-28T19:20:04;-0.80;99.90
38910;DHT22;24676;51.360;12.354;2023-02-28T19:22:48;-0.80;99.90
38910;DHT22;24676;51.360;12.354;2023-02-28T19:25:32;-0.90;99.90
38910;DHT22;24676;51.360;12.354;2023-02-28T19:28:17;-1.00;99.90
38910;DHT22;24676;51.360;12.354;2023-02-28T19:31:02;-1.00;99.90
38910;DHT22;24676;51.360;12.354;2023-02-28T19:33:47;-1.10;99.90
38910;DHT22;24676;51.360;12.354;2023-02-28T19:36:31;-1.00;99.90
38910;DHT22;24676;51.360;12.354;2023-02-28T19:39:17;-1.00;99.90
38910;DHT22;24676;51.360;12.354;2023-02-28T19:42:02;-1.00;99.90
38910;DHT22;24676;51.360;12.354;2023-02-28T19:44:45;-1.00;99.90
38910;DHT22;24676;51.360;12.354;2023-02-28T19:47:30;-1.00;99.90
38910;DHT22;24676;51.360;12.354;2023-02-28T19:50:14;-1.00;99.90
38910;DHT22;24676;51.360;12.354;2023-02-28T19:52:59;-1.10;99.90
38910;DHT22;24676;51.360;12.354;2023-02-28T19:55:45;-1.20;99.90
38910;DHT22;24676;51.360;12.354;2023-02-28T19:58:31;-1.20;99.90